Latest Weather Observations for Coolangatta

IDQ60801

Issued at 8:52 pm EST Saturday 23 February 2019 (issued every 10 minutes, with the page automatically refreshed every 10 minutes)

About weather observations | Map of weather stations | Latest weather observations for QLD | Other Formats
Station Details ID: 040717 Name: COOLANGATTA Lat: -28.17 Lon: 153.51 Height: 4.0 m
Data from the previous 72 hours. | See also: Recent months at Coolangatta
Date/Time
EST
Temp
°C
App
Temp
°C
Dew
Point
°C
Rel
Hum
%
Delta-T
°C
Wind Press
QNH
hPa
Press
MSL
hPa
Rain since
9am
mm
Dir  Spd
km/h
Gust
km/h
Spd
kts
Gust
kts
23/08:30pm 21.3 19.2 16.3 73 3.0 SSW 22 35 12 19 1017.2 1017.1 0.0
23/08:00pm 21.7 18.8 16.0 70 3.4 SSW 26 41 14 22 1017.3 1017.2 0.0
23/07:43pm 22.4 18.4 16.2 68 3.8 S 32 52 17 28 1017.0 1016.9 0.0
23/07:30pm 22.3 18.6 15.9 67 3.9 SSW 30 46 16 25 1016.6 1016.5 0.0
23/07:00pm 22.0 19.2 16.3 70 3.4 SSW 26 41 14 22 1016.3 1016.2 0.0
23/06:30pm 21.7 17.2 16.4 72 3.2 S 35 59 19 32 1016.3 1016.2 0.0
23/06:07pm 23.1 19.7 15.7 63 4.5 S 28 46 15 25 1015.6 1015.5 0.0
23/06:00pm 23.2 20.1 15.5 62 4.6 S 26 39 14 21 1015.6 1015.5 0.0
23/05:31pm 22.7 19.1 16.3 67 3.9 S 30 50 16 27 1015.5 1015.4 0.0
23/05:30pm 22.6 19.1 16.4 68 3.8 S 30 46 16 25 1015.5 1015.4 0.0
23/05:07pm 24.6 18.3 14.7 54 5.9 S 41 59 22 32 1015.0 1014.9 0.0
23/05:00pm 25.0 19.0 14.5 52 6.2 S 39 56 21 30 1014.8 1014.7 0.0
23/04:38pm 25.7 20.2 14.8 51 6.5 S 37 56 20 30 1014.4 1014.3 0.0
23/04:30pm 25.8 20.1 15.2 52 6.4 S 39 56 21 30 1014.4 1014.3 0.0
23/04:00pm 25.8 18.9 14.0 48 7.0 S 43 67 23 36 1014.2 1014.1 0.0
23/03:30pm 26.4 20.7 15.1 49 6.8 S 39 65 21 35 1014.1 1014.0 0.0
23/03:00pm 25.7 20.5 14.5 50 6.7 SSW 35 63 19 34 1014.1 1014.0 0.0
23/02:30pm 25.0 17.1 14.8 53 6.1 S 50 74 27 40 1014.2 1014.1 0.0
23/02:18pm 25.9 18.2 14.4 49 6.9 S 48 80 26 43 1013.5 1013.4 0.0
23/02:01pm 26.9 20.1 14.3 46 7.5 S 43 61 23 33 1013.5 1013.4 0.0
23/02:00pm 27.1 20.6 14.1 44 7.7 S 41 57 22 31 1013.6 1013.5 0.0
23/01:30pm 28.2 21.8 14.4 42 8.3 S 41 61 22 33 1013.4 1013.3 0.0
23/01:00pm 27.5 20.2 13.4 41 8.3 S 44 65 24 35 1013.5 1013.4 0.0
23/12:30pm 27.0 21.0 15.4 49 7.1 S 41 61 22 33 1013.4 1013.3 0.0
23/12:00pm 26.9 20.7 15.9 51 6.7 S 43 63 23 34 1013.3 1013.2 0.0
23/11:30am 25.9 19.8 16.2 55 5.9 S 43 63 23 34 1013.5 1013.4 0.0
23/11:00am 25.7 21.2 16.5 56 5.7 SSW 35 54 19 29 1013.7 1013.6 0.0
23/10:36am 24.3 18.1 15.8 59 5.1 S 43 74 23 40 1013.8 1013.7 0.0
23/10:30am 25.9 21.4 16.5 56 5.8 S 35 56 19 30 1013.5 1013.4 0.0
23/10:00am 25.6 21.7 17.0 59 5.3 S 33 63 18 34 1013.6 1013.5 0.0
23/09:33am 24.9 20.5 16.6 60 5.1 S 35 54 19 29 1013.5 1013.4 0.0
23/09:30am 25.5 21.7 17.2 60 5.2 S 33 48 18 26 1013.4 1013.3 0.0
23/09:00am 23.9 19.7 16.2 62 4.7 S 33 52 18 28 1012.9 1012.8 1.2
23/08:30am 24.3 20.1 17.1 64 4.5 S 35 59 19 32 1012.8 1012.7 1.2
23/08:01am 23.6 20.4 17.3 67 3.9 S 30 50 16 27 1012.6 1012.5 1.2
23/08:00am 23.6 20.9 17.6 69 3.7 S 28 41 15 22 1012.7 1012.6 1.2
23/07:30am 21.6 19.4 16.8 74 2.9 SSW 24 43 13 23 1012.4 1012.3 1.2
23/07:00am 20.5 19.0 17.7 84 1.7 SSW 22 39 12 21 1012.2 1012.1 1.2
23/06:30am 20.5 18.5 17.3 82 2.0 SSW 24 39 13 21 1012.4 1012.3 1.0
23/06:14am 21.3 18.3 16.9 76 2.7 S 28 46 15 25 1011.8 1011.7 1.0
23/06:00am 21.1 18.1 16.7 76 2.7 SSW 28 44 15 24 1011.7 1011.6 1.0
23/05:30am 20.9 18.2 16.5 76 2.7 SSW 26 41 14 22 1011.2 1011.1 1.0
23/05:00am 20.5 18.5 16.5 78 2.4 SSW 22 35 12 19 1011.0 1010.9 1.0
23/04:30am 20.1 17.8 16.7 81 2.1 SSW 24 39 13 21 1010.7 1010.6 1.0
23/04:00am 19.2 17.9 17.2 88 1.2 SW 20 33 11 18 1010.7 1010.6 1.0
23/03:30am 19.2 17.9 17.3 89 1.2 SW 20 33 11 18 1010.8 1010.7 0.8
23/03:00am 19.2 17.4 17.0 87 1.3 SSW 22 37 12 20 1010.9 1010.8 0.6
23/02:30am 19.4 18.2 17.4 88 1.2 SW 20 33 11 18 1010.5 1010.4 0.4
23/02:00am 19.7 17.6 17.1 85 1.6 SSW 24 33 13 18 1010.9 1010.8 0.2
23/01:30am 20.2 18.6 16.4 79 2.3 SW 20 32 11 17 1010.7 1010.6 0.2
23/01:00am 21.0 17.4 16.2 74 2.9 SSW 30 48 16 26 1010.8 1010.7 0.2
23/12:30am 21.2 18.0 16.4 74 2.9 SSW 28 48 15 26 1011.1 1011.0 0.2
23/12:27am 21.1 18.0 16.5 75 2.8 SSW 28 48 15 26 1011.2 1011.1 0.2
23/12:00am 22.2 19.2 15.8 67 3.8 SSW 26 43 14 23 1011.1 1011.0 0.2
 
Date/Time
EST
Temp
°C
App
Temp
°C
Dew
Point
°C
Rel
Hum
%
Delta-T
°C
Wind Press
QNH
hPa
Press
MSL
hPa
Rain since
9am
mm
Dir  Spd
km/h
Gust
km/h
Spd
kts
Gust
kts
22/11:46pm 22.4 19.0 15.7 66 4.0 SSW 28 50 15 27 1011.2 1011.1 0.2
22/11:30pm 22.5 19.4 15.6 65 4.1 SSW 26 39 14 21 1011.1 1011.0 0.2
22/11:01pm 22.8 18.4 15.1 62 4.6 SSW 32 50 17 27 1011.3 1011.2 0.2
22/11:00pm 22.8 18.4 15.1 62 4.6 SSW 32 46 17 25 1011.3 1011.2 0.2
22/10:38pm 22.6 18.7 15.4 64 4.3 SSW 30 48 16 26 1011.6 1011.5 0.2
22/10:30pm 22.5 18.2 15.4 64 4.2 SSW 32 48 17 26 1011.7 1011.6 0.2
22/10:20pm 22.4 18.9 15.5 65 4.1 SSW 28 54 15 29 1011.6 1011.5 0.2
22/10:00pm 22.2 19.8 15.3 65 4.1 SW 22 37 12 20 1011.7 1011.6 0.2
22/09:30pm 21.8 18.6 15.2 66 3.9 SSW 26 43 14 23 1011.6 1011.5 0.2
22/09:00pm 22.3 17.7 15.2 64 4.2 SSW 33 56 18 30 1011.6 1011.5 0.2
22/08:30pm 22.2 17.2 15.1 64 4.2 SSW 35 59 19 32 1011.7 1011.6 0.2
22/08:21pm 22.3 18.7 15.2 64 4.2 SSW 28 59 15 32 1011.9 1011.8 0.2
22/08:00pm 22.2 18.2 15.1 64 4.2 SSW 30 46 16 25 1011.6 1011.5 0.2
22/07:30pm 23.8 18.0 13.9 54 5.8 S 37 56 20 30 1011.4 1011.3 0.2
22/07:01pm 24.3 20.2 13.8 52 6.2 SSW 28 46 15 25 1010.5 1010.4 0.2
22/07:00pm 24.3 19.8 13.8 52 6.2 SSW 30 46 16 25 1010.5 1010.4 0.2
22/06:34pm 24.3 20.2 13.8 52 6.2 SSW 28 46 15 25 1010.3 1010.2 0.2
22/06:30pm 24.3 19.3 13.5 51 6.3 SSW 32 46 17 25 1010.3 1010.2 0.2
22/06:01pm 24.8 20.5 14.3 52 6.2 S 30 48 16 26 1009.8 1009.7 0.2
22/06:00pm 24.7 20.0 14.2 52 6.2 S 32 48 17 26 1009.8 1009.7 0.2
22/05:47pm 24.8 20.9 14.3 52 6.2 S 28 50 15 27 1009.6 1009.5 0.2
22/05:30pm 24.9 20.4 15.0 54 5.9 SSW 32 44 17 24 1009.6 1009.5 0.2
22/05:00pm 24.8 20.2 16.2 58 5.3 S 35 57 19 31 1009.6 1009.5 0.2
22/04:30pm 25.1 18.7 15.4 55 5.9 S 43 65 23 35 1009.3 1009.2 0.2
22/04:00pm 26.2 21.9 15.9 53 6.3 S 33 56 18 30 1008.9 1008.8 0.2
22/03:30pm 25.6 20.3 15.3 53 6.2 S 37 56 20 30 1008.8 1008.7 0.2
22/03:09pm 25.6 17.6 14.7 51 6.5 S 50 76 27 41 1008.7 1008.6 0.2
22/03:00pm 26.4 21.1 15.4 50 6.7 S 37 57 20 31 1008.4 1008.3 0.2
22/02:30pm 26.5 19.5 15.2 49 6.8 SSE 46 70 25 38 1008.3 1008.2 0.2
22/02:00pm 28.3 21.3 15.2 44 8.0 S 46 70 25 38 1008.2 1008.1 0.2
22/01:30pm 26.8 19.5 15.5 50 6.9 S 48 69 26 37 1008.4 1008.3 0.2
22/01:00pm 26.4 20.3 16.1 53 6.3 S 43 76 23 41 1008.6 1008.5 0.2
22/12:30pm 27.1 21.8 18.1 58 5.7 S 43 63 23 34 1008.7 1008.6 0.2
22/12:00pm 27.0 23.3 19.1 62 5.1 S 37 57 20 31 1008.9 1008.8 0.2
22/11:30am 25.1 20.6 18.3 66 4.3 S 39 82 21 44 1009.3 1009.2 0.2
22/11:00am 27.0 19.5 16.9 54 6.3 SSE 52 76 28 41 1009.2 1009.1 0.2
22/10:51am 27.3 21.2 16.6 52 6.6 SSE 44 70 24 38 1009.3 1009.2 0.2
22/10:30am 26.1 22.6 18.0 61 5.1 S 33 52 18 28 1009.4 1009.3 0.2
22/10:01am 23.6 20.6 18.7 74 3.1 S 32 50 17 27 1009.7 1009.6 0.0
22/10:00am 23.4 20.9 18.9 76 2.9 S 30 46 16 25 1009.7 1009.6 0.0
22/09:30am 25.1 20.0 17.6 63 4.7 S 41 59 22 32 1009.4 1009.3 0.0
22/09:00am 26.1 21.9 18.8 64 4.7 S 39 59 21 32 1009.5 1009.4 22.0
22/08:30am 24.9 19.6 18.1 66 4.3 SSE 43 69 23 37 1009.3 1009.2 22.0
22/08:22am 25.7 20.5 17.4 60 5.2 S 41 69 22 37 1009.1 1009.0 22.0
22/08:00am 25.2 22.0 18.2 65 4.4 S 32 50 17 27 1008.9 1008.8 22.0
22/07:30am 24.7 18.9 19.1 71 3.6 S 48 72 26 39 1008.7 1008.6 22.0
22/07:27am 25.0 19.5 18.9 69 3.9 S 46 70 25 38 1008.7 1008.6 22.0
22/07:00am 24.6 20.5 18.3 68 4.0 S 37 57 20 31 1008.6 1008.5 22.0
22/06:30am 23.4 21.0 19.1 77 2.7 S 30 50 16 27 1008.7 1008.6 22.0
22/06:00am 23.7 20.9 19.0 75 3.0 S 32 50 17 27 1008.5 1008.4 22.0
22/05:32am 23.3 21.6 19.7 80 2.3 S 28 46 15 25 1008.4 1008.3 22.0
22/05:30am 23.3 21.6 19.7 80 2.3 S 28 41 15 22 1008.3 1008.2 22.0
22/05:00am 23.8 21.7 19.7 78 2.6 S 30 50 16 27 1007.9 1007.8 21.8
22/04:34am 23.5 21.1 20.0 81 2.3 S 32 50 17 27 1007.8 1007.7 21.8
22/04:30am 23.8 21.3 20.1 80 2.4 S 33 48 18 26 1007.7 1007.6 21.8
22/04:23am 23.8 22.2 20.1 80 2.4 S 28 48 15 26 1007.7 1007.6 21.8
22/04:00am 23.0 21.7 20.7 87 1.5 S 28 43 15 23 1007.9 1007.8 21.8
22/03:30am 22.7 21.7 21.2 91 1.0 S 28 48 15 26 1007.7 1007.6 21.8
22/03:23am 22.6 21.2 21.2 92 0.9 S 30 48 16 26 1007.8 1007.7 21.8
22/03:00am 22.6 22.3 21.1 91 1.0 S 24 41 13 22 1007.8 1007.7 21.4
22/02:55am 22.5 22.6 21.1 92 0.9 S 22 41 12 22 1007.9 1007.8 21.4
22/02:30am 22.4 22.7 21.6 95 0.5 S 22 35 12 19 1008.1 1008.0 19.8
22/02:25am 22.4 22.3 21.4 94 0.7 S 24 39 13 21 1008.1 1008.0 19.6
22/02:08am 22.6 21.8 21.6 94 0.7 S 28 46 15 25 1008.0 1007.9 16.8
22/02:01am 22.8 23.2 21.8 94 0.7 S 22 35 12 19 1007.9 1007.8 16.6
22/02:00am 22.8 23.6 21.8 94 0.7 S 20 35 11 19 1007.9 1007.8 16.6
22/01:33am 23.2 23.3 22.5 96 0.5 S 26 41 14 22 1008.3 1008.2 14.0
22/01:30am 23.2 23.7 22.7 97 0.3 S 24 35 13 19 1008.1 1008.0 13.4
22/01:26am 23.0 22.7 22.5 97 0.3 S 28 46 15 25 1008.2 1008.1 13.4
22/01:25am 23.1 22.8 22.6 97 0.3 S 28 46 15 25 1008.2 1008.1 13.4
22/01:22am 23.0 22.3 22.5 97 0.3 S 30 46 16 25 1008.4 1008.3 13.4
22/01:21am 23.0 21.9 22.5 97 0.3 S 32 46 17 25 1008.4 1008.3 13.4
22/01:15am 22.6 21.3 22.1 97 0.3 S 32 50 17 27 1008.3 1008.2 13.4
22/01:03am 22.7 21.7 22.0 96 0.5 S 30 44 16 24 1008.9 1008.8 10.4
22/01:00am 23.2 22.8 22.4 95 0.5 S 28 41 15 22 1008.7 1008.6 8.8
22/12:55am 23.0 22.5 22.2 95 0.5 S 28 43 15 23 1008.6 1008.5 8.8
22/12:37am 22.1 19.9 21.4 96 0.5 S 35 59 19 32 1008.8 1008.7 8.6
22/12:31am 22.7 21.9 21.7 94 0.7 S 28 56 15 30 1009.3 1009.2 4.0
22/12:30am 23.1 22.8 21.9 93 0.8 S 26 44 14 24 1009.2 1009.1 2.4
22/12:18am 23.4 23.7 22.2 93 0.8 S 24 35 13 19 1009.0 1008.9 1.2
22/12:00am 23.8 23.9 21.9 89 1.3 S 24 41 13 22 1009.2 1009.1 0.8
 
Date/Time
EST
Temp
°C
App
Temp
°C
Dew
Point
°C
Rel
Hum
%
Delta-T
°C
Wind Press
QNH
hPa
Press
MSL
hPa
Rain since
9am
mm
Dir  Spd
km/h
Gust
km/h
Spd
kts
Gust
kts
21/11:30pm 24.6 24.7 21.9 85 1.8 S 24 43 13 23 1009.2 1009.1 0.8
21/11:00pm 24.5 25.3 21.8 85 1.8 S 20 30 11 16 1009.2 1009.1 0.8
21/10:30pm 24.3 25.1 21.8 86 1.7 S 20 32 11 17 1009.3 1009.2 0.8
21/10:00pm 24.5 24.0 21.4 83 2.0 S 26 39 14 21 1009.5 1009.4 0.8
21/09:48pm 24.5 23.4 21.0 81 2.3 S 28 46 15 25 1009.7 1009.6 0.8
21/09:30pm 25.6 26.1 21.1 76 3.0 S 20 35 11 19 1009.6 1009.5 0.8
21/09:00pm 25.9 24.7 20.9 74 3.3 SSE 28 43 15 23 1009.6 1009.5 0.8
21/08:30pm 25.7 25.3 20.9 75 3.2 S 24 35 13 19 1009.5 1009.4 0.8
21/08:11pm 25.9 24.8 21.1 75 3.2 S 28 46 15 25 1009.3 1009.2 0.8
21/08:00pm 25.6 26.2 21.3 77 2.8 S 20 33 11 18 1009.2 1009.1 0.8
21/07:30pm 25.7 25.4 21.1 76 3.0 S 24 35 13 19 1009.0 1008.9 0.8
21/07:00pm 26.0 25.3 21.0 74 3.3 S 26 39 14 21 1008.8 1008.7 0.8
21/06:37pm 26.1 24.8 20.7 72 3.5 S 28 46 15 25 1008.6 1008.5 0.8
21/06:30pm 26.1 25.3 20.9 73 3.4 S 26 39 14 21 1008.7 1008.6 0.8
21/06:00pm 26.4 25.2 20.9 72 3.6 S 28 39 15 21 1008.3 1008.2 0.8
21/05:30pm 26.8 24.3 20.9 70 3.9 SSE 35 50 19 27 1007.9 1007.8 0.8
21/05:13pm 28.1 24.8 20.9 65 4.8 SSE 39 57 21 31 1007.6 1007.5 0.8
21/05:00pm 28.2 24.6 20.2 62 5.3 SSE 39 56 21 30 1007.3 1007.2 0.8
21/04:36pm 28.1 24.1 20.1 62 5.2 SSE 41 59 22 32 1007.3 1007.2 0.8
21/04:30pm 28.6 26.3 20.6 62 5.3 SSE 33 48 18 26 1007.3 1007.2 0.8
21/04:00pm 28.7 25.6 20.4 60 5.5 SSE 37 57 20 31 1007.0 1006.9 0.8
21/03:54pm 29.3 25.8 20.5 59 5.8 SSE 39 57 21 31 1007.0 1006.9 0.8
21/03:30pm 29.5 26.2 20.9 60 5.7 SSE 39 52 21 28 1006.9 1006.8 0.8
21/03:00pm 29.8 25.8 20.1 56 6.4 SSE 41 57 22 31 1006.8 1006.7 0.8
21/02:43pm 30.4 27.7 21.2 58 6.2 SSE 37 56 20 30 1007.0 1006.9 0.8
21/02:30pm 30.2 27.0 20.2 55 6.6 SSE 37 52 20 28 1007.2 1007.1 0.8
21/02:00pm 29.9 26.7 20.2 56 6.4 SSE 37 59 20 32 1007.6 1007.5 0.8
21/01:52pm 30.1 26.7 19.8 54 6.8 SSE 37 59 20 32 1007.6 1007.5 0.8
21/01:30pm 30.0 26.1 20.3 56 6.4 SSE 41 56 22 30 1008.0 1007.9 0.8
21/01:00pm 30.3 26.0 20.8 56 6.3 SSE 44 59 24 32 1008.2 1008.1 0.8
21/12:48pm 29.7 26.5 20.3 57 6.2 SSE 37 56 20 30 1008.3 1008.2 0.8
21/12:30pm 30.2 28.3 21.0 58 6.1 SSE 32 44 17 24 1008.4 1008.3 0.8
21/12:14pm 30.1 28.0 21.7 60 5.7 SSE 35 54 19 29 1008.6 1008.5 0.8
21/12:00pm 29.5 27.4 20.9 60 5.7 SSE 33 50 18 27 1008.6 1008.5 0.8
21/11:37am 30.4 30.0 22.3 62 5.5 SSE 28 46 15 25 1008.8 1008.7 0.8
21/11:30am 29.3 27.4 21.3 62 5.3 SSE 33 50 18 27 1008.8 1008.7 0.8
21/11:16am 28.0 26.3 21.3 67 4.5 SSE 32 52 17 28 1009.0 1008.9 0.8
21/11:00am 28.7 27.7 22.0 67 4.5 SSE 30 46 16 25 1009.2 1009.1 0.8
21/10:51am 28.6 27.2 21.9 67 4.5 SSE 32 50 17 27 1009.2 1009.1 0.8
21/10:30am 28.4 27.4 22.6 71 3.9 SSE 32 43 17 23 1009.3 1009.2 0.8
21/10:00am 25.8 27.7 23.7 88 1.4 SSE 20 32 11 17 1009.4 1009.3 0.8
21/09:34am 24.4 24.6 23.4 94 0.7 SSE 28 46 15 25 1009.3 1009.2 0.8
21/09:30am 24.2 24.2 23.0 93 0.8 SSE 28 43 15 23 1009.3 1009.2 0.8
21/09:00am 25.0 24.9 22.9 88 1.4 SE 28 39 15 21 1009.0 1008.9 0.0
21/08:59am 25.3 25.3 23.0 87 1.6 SE 28 39 15 21 1009.0 1008.9 0.0
21/08:30am 27.3 28.0 22.3 74 3.4 S 22 35 12 19 1008.6 1008.5 0.0
21/08:00am 26.4 27.3 22.0 77 3.0 SSW 20 32 11 17 1008.4 1008.3 0.0
21/07:30am 25.8 27.0 22.1 80 2.5 S 19 30 10 16 1008.3 1008.2 0.0
21/07:00am 25.0 26.3 21.7 82 2.2 S 17 20 9 11 1008.1 1008.0 0.0
21/06:30am 24.6 26.9 22.1 86 1.7 SSW 13 19 7 10 1007.8 1007.7 0.0
21/06:00am 24.3 25.8 22.0 87 1.5 SSW 17 24 9 13 1007.5 1007.4 0.0
21/05:30am 24.1 25.7 22.2 89 1.3 S 17 22 9 12 1007.2 1007.1 0.0
21/05:00am 24.1 26.1 22.2 89 1.3 S 15 20 8 11 1006.9 1006.8 0.0
21/04:30am 24.2 25.9 21.7 86 1.7 SSW 15 20 8 11 1006.6 1006.5 0.0
21/04:00am 24.2 26.1 21.3 84 1.9 S 13 20 7 11 1006.5 1006.4 0.0
21/03:57am 24.4 26.4 21.5 84 1.9 S 13 20 7 11 1006.5 1006.4 0.0
21/03:32am 24.8 26.8 21.5 82 2.2 S 13 19 7 10 1006.5 1006.4 0.0
21/03:30am 24.7 26.6 21.4 82 2.2 S 13 19 7 10 1006.5 1006.4 0.0
21/03:00am 24.7 26.5 21.2 81 2.3 SSW 13 19 7 10 1006.5 1006.4 0.0
21/02:30am 24.8 26.8 21.5 82 2.2 S 13 17 7 9 1006.7 1006.6 0.0
21/02:00am 24.7 27.3 21.2 81 2.3 S 9 13 5 7 1006.7 1006.6 0.0
21/01:30am 25.2 27.1 21.3 79 2.6 SE 13 19 7 10 1006.9 1006.8 0.0
21/01:00am 25.1 26.9 21.2 79 2.6 SSW 13 20 7 11 1007.8 1007.7 0.0
21/12:30am 25.2 27.3 21.7 81 2.3 S 13 20 7 11 1008.2 1008.1 0.0
21/12:00am 25.1 26.5 21.8 82 2.2 S 17 26 9 14 1008.7 1008.6 0.0
 
Date/Time
EST
Temp
°C
App
Temp
°C
Dew
Point
°C
Rel
Hum
%
Delta-T
°C
Wind Press
QNH
hPa
Press
MSL
hPa
Rain since
9am
mm
Dir  Spd
km/h
Gust
km/h
Spd
kts
Gust
kts
20/11:30pm 25.2 26.6 21.9 82 2.2 SSW 17 28 9 15 1009.1 1009.0 0.0
20/11:00pm 25.4 26.6 22.1 82 2.2 SSW 19 26 10 14 1009.4 1009.3 0.0
20/10:30pm 25.5 27.2 22.4 83 2.1 S 17 20 9 11 1009.1 1009.0 0.0
20/10:00pm 25.1 27.6 22.4 85 1.8 S 13 17 7 9 1008.9 1008.8 0.0
20/09:30pm 25.1 27.5 22.2 84 1.9 S 13 19 7 10 1008.7 1008.6 0.0
20/09:00pm 25.3 28.5 22.4 84 1.9 S 9 13 5 7 1008.5 1008.4 0.0

Other formats

Comma delimited format used in spreadsheet applications
http://www.bom.gov.au/fwo/IDQ60801/IDQ60801.94592.axf

JavaScript Object Notation format (JSON) in row-major order
http://www.bom.gov.au/fwo/IDQ60801/IDQ60801.94592.json

Data quality

Most of these data are generated automatically and are frequently updated. Quality checks on data are not normally performed. It is possible for incorrect values to appear. Refer to information at About Latest Weather Observations and please check the disclaimer before using these data.